MSC Marta — 3ECV4 — position and weather

sailwx.info

Track history (hours):
 
Tides and Currents Weather Stations Pressure Air Temp Water Temp Dewpoint Dewpoint Depression Visibility Wind Speed Wind Dir Waves Ship Positions

MSC Marta

Last reported at 2018-Jan-03 00:20 UTC. Time now 2018-Jan-22 16:29 UTC.
Position S 24°53' W 046°44'.
Warning: this ship's position is 19 days out of date.

Length 275 m; draft 9.5 m.

Type: Cargo ship. MMSI: 371474000.

Date/timePositionNaut miles runAvg speedWind from/ knotsBaromVisibWave heightAir tempDewpointWater temp
2018-Jan-03 00:20S 24°53' W 046°44'720.6
2018-Jan-03 00:00S 24°46' W 046°41'1020.4
2018-Jan-02 23:30S 24°37' W 046°37'1020.4
2018-Jan-02 23:00S 24°28' W 046°33'1020.8
2018-Jan-02 22:30S 24°18' W 046°28'1121.1
2018-Jan-02 22:00S 24°08' W 046°24'816.3
2018-Jan-02 21:30S 24°01' W 046°20'4 6.7
2018-Jan-02 20:59S 23°58' W 046°18'2 0.1
2018-Jan-01 22:39S 23°57' W 046°19'1 8.4
2018-Jan-01 22:30S 23°58' W 046°18'3 5.9
2018-Jan-01 22:00S 23°60' W 046°20'4 8.1
2018-Jan-01 21:30S 24°04' W 046°22'3 7.0
2018-Jan-01 21:01S 24°07' W 046°23'5 9.7
2018-Jan-01 20:31S 24°11' W 046°20'1 1.8
2018-Jan-01 19:47S 24°12' W 046°19'0 0.0
2018-Jan-01 19:29S 24°12' W 046°19'0 0.1
2018-Jan-01 18:47S 24°12' W 046°19'0 0.1
2018-Jan-01 18:29S 24°12' W 046°19'0 0.1
2018-Jan-01 17:53S 24°12' W 046°19'0 0.1
2018-Jan-01 17:29S 24°12' W 046°19'22 9.0
2018-Jan-01 15:00S 24°24' W 045°58'713.7
2018-Jan-01 14:30S 24°23' W 045°51'713.7
2018-Jan-01 14:00S 24°22' W 045°43'  
2017-Dec-24 00:53N 14°12' W 060°47'617.3
2017-Dec-24 00:30N 14°15' W 060°53'  
Track history (hours):
 
Tides and Currents Weather Stations Pressure Air Temp Water Temp Dewpoint Dewpoint Depression Visibility Wind Speed Wind Dir Waves Ship Positions

MSC Marta

Last reported at 2018-Jan-03 00:20 UTC. Time now 2018-Jan-22 16:29 UTC.
Position S 24°53' W 046°44'.
Warning: this ship's position is 19 days out of date.

Length 275 m; draft 9.5 m.

Type: Cargo ship. MMSI: 371474000.

Date/timePositionNaut miles runAvg speedWind from/ knotsBaromVisibWave heightAir tempDewpointWater temp
2018-Jan-03 00:20S 24°53' W 046°44'720.6
2018-Jan-03 00:00S 24°46' W 046°41'1020.4
2018-Jan-02 23:30S 24°37' W 046°37'1020.4
2018-Jan-02 23:00S 24°28' W 046°33'1020.8
2018-Jan-02 22:30S 24°18' W 046°28'1121.1
2018-Jan-02 22:00S 24°08' W 046°24'816.3
2018-Jan-02 21:30S 24°01' W 046°20'4 6.7
2018-Jan-02 20:59S 23°58' W 046°18'2 0.1
2018-Jan-01 22:39S 23°57' W 046°19'1 8.4
2018-Jan-01 22:30S 23°58' W 046°18'3 5.9
2018-Jan-01 22:00S 23°60' W 046°20'4 8.1
2018-Jan-01 21:30S 24°04' W 046°22'3 7.0
2018-Jan-01 21:01S 24°07' W 046°23'5 9.7
2018-Jan-01 20:31S 24°11' W 046°20'1 1.8
2018-Jan-01 19:47S 24°12' W 046°19'0 0.0
2018-Jan-01 19:29S 24°12' W 046°19'0 0.1
2018-Jan-01 18:47S 24°12' W 046°19'0 0.1
2018-Jan-01 18:29S 24°12' W 046°19'0 0.1
2018-Jan-01 17:53S 24°12' W 046°19'0 0.1
2018-Jan-01 17:29S 24°12' W 046°19'22 9.0
2018-Jan-01 15:00S 24°24' W 045°58'713.7
2018-Jan-01 14:30S 24°23' W 045°51'713.7
2018-Jan-01 14:00S 24°22' W 045°43'  
2017-Dec-24 00:53N 14°12' W 060°47'617.3
2017-Dec-24 00:30N 14°15' W 060°53'  

Dump ship's entire track history